sensor_id;sensor_type;location;lat;lon;timestamp;temperature;humidity
36244;DHT22;22284;49.956;19.816;2022-07-23T00:00:44;22.42;68.66
36244;DHT22;22284;49.956;19.816;2022-07-23T00:03:46;22.35;68.55
36244;DHT22;22284;49.956;19.816;2022-07-23T00:06:47;22.31;68.55
36244;DHT22;22284;49.956;19.816;2022-07-23T00:09:48;22.28;68.65
36244;DHT22;22284;49.956;19.816;2022-07-23T00:12:49;22.25;68.64
36244;DHT22;22284;49.956;19.816;2022-07-23T00:15:50;22.20;69.03
36244;DHT22;22284;49.956;19.816;2022-07-23T00:18:51;22.13;69.09
36244;DHT22;22284;49.956;19.816;2022-07-23T00:21:52;22.07;69.06
36244;DHT22;22284;49.956;19.816;2022-07-23T00:24:53;22.01;69.10
36244;DHT22;22284;49.956;19.816;2022-07-23T00:27:54;22.00;69.20
36244;DHT22;22284;49.956;19.816;2022-07-23T00:30:55;22.00;69.31
36244;DHT22;22284;49.956;19.816;2022-07-23T00:33:56;21.95;69.45
36244;DHT22;22284;49.956;19.816;2022-07-23T00:36:57;21.90;69.37
36244;DHT22;22284;49.956;19.816;2022-07-23T00:39:58;21.84;69.50
36244;DHT22;22284;49.956;19.816;2022-07-23T00:43:00;21.82;69.54
36244;DHT22;22284;49.956;19.816;2022-07-23T00:46:01;21.76;69.59
36244;DHT22;22284;49.956;19.816;2022-07-23T00:49:02;21.72;70.23
36244;DHT22;22284;49.956;19.816;2022-07-23T00:52:03;21.58;69.97
36244;DHT22;22284;49.956;19.816;2022-07-23T00:55:06;21.52;69.85
36244;DHT22;22284;49.956;19.816;2022-07-23T00:58:09;21.51;69.76
36244;DHT22;22284;49.956;19.816;2022-07-23T01:01:11;21.48;69.74
36244;DHT22;22284;49.956;19.816;2022-07-23T01:04:12;21.45;69.90
36244;DHT22;22284;49.956;19.816;2022-07-23T01:07:13;21.42;69.97
36244;DHT22;22284;49.956;19.816;2022-07-23T01:10:14;21.42;70.07
36244;DHT22;22284;49.956;19.816;2022-07-23T01:13:33;21.41;70.72
36244;DHT22;22284;49.956;19.816;2022-07-23T01:16:34;21.38;70.23
36244;DHT22;22284;49.956;19.816;2022-07-23T01:19:36;21.35;70.49
36244;DHT22;22284;49.956;19.816;2022-07-23T01:22:37;21.33;70.45
36244;DHT22;22284;49.956;19.816;2022-07-23T01:25:48;21.27;70.71
36244;DHT22;22284;49.956;19.816;2022-07-23T01:28:49;21.24;70.78
36244;DHT22;22284;49.956;19.816;2022-07-23T01:31:50;21.24;71.06
36244;DHT22;22284;49.956;19.816;2022-07-23T01:34:51;21.17;70.94
36244;DHT22;22284;49.956;19.816;2022-07-23T01:37:52;21.15;71.04
36244;DHT22;22284;49.956;19.816;2022-07-23T01:40:54;21.10;71.24
36244;DHT22;22284;49.956;19.816;2022-07-23T01:43:55;21.09;71.06
36244;DHT22;22284;49.956;19.816;2022-07-23T01:46:56;21.10;71.29
36244;DHT22;22284;49.956;19.816;2022-07-23T01:49:57;21.10;71.07
36244;DHT22;22284;49.956;19.816;2022-07-23T01:52:58;21.07;71.03
36244;DHT22;22284;49.956;19.816;2022-07-23T01:56:00;21.04;71.64
36244;DHT22;22284;49.956;19.816;2022-07-23T01:59:01;21.00;71.67
36244;DHT22;22284;49.956;19.816;2022-07-23T02:02:02;20.90;72.07
36244;DHT22;22284;49.956;19.816;2022-07-23T02:05:05;20.80;72.13
36244;DHT22;22284;49.956;19.816;2022-07-23T02:08:06;20.72;72.71
36244;DHT22;22284;49.956;19.816;2022-07-23T02:11:07;20.60;72.55
36244;DHT22;22284;49.956;19.816;2022-07-23T02:14:08;20.55;72.38
36244;DHT22;22284;49.956;19.816;2022-07-23T02:17:09;20.55;72.35
36244;DHT22;22284;49.956;19.816;2022-07-23T02:20:11;20.51;72.77
36244;DHT22;22284;49.956;19.816;2022-07-23T02:23:12;20.49;72.46
36244;DHT22;22284;49.956;19.816;2022-07-23T02:26:13;20.49;72.50
36244;DHT22;22284;49.956;19.816;2022-07-23T02:29:14;20.48;72.39
36244;DHT22;22284;49.956;19.816;2022-07-23T02:32:16;20.49;72.66
36244;DHT22;22284;49.956;19.816;2022-07-23T02:35:17;20.51;72.60
36244;DHT22;22284;49.956;19.816;2022-07-23T02:38:18;20.47;72.67
36244;DHT22;22284;49.956;19.816;2022-07-23T02:41:19;20.47;72.94
36244;DHT22;22284;49.956;19.816;2022-07-23T02:44:20;20.45;72.97
36244;DHT22;22284;49.956;19.816;2022-07-23T02:47:21;20.42;73.13
36244;DHT22;22284;49.956;19.816;2022-07-23T02:50:22;20.38;73.16
36244;DHT22;22284;49.956;19.816;2022-07-23T02:53:23;20.31;73.08
36244;DHT22;22284;49.956;19.816;2022-07-23T02:56:25;20.31;72.98
36244;DHT22;22284;49.956;19.816;2022-07-23T02:59:26;20.32;73.08
36244;DHT22;22284;49.956;19.816;2022-07-23T03:02:26;20.30;73.10
36244;DHT22;22284;49.956;19.816;2022-07-23T03:05:27;20.30;73.21
36244;DHT22;22284;49.956;19.816;2022-07-23T03:08:28;20.30;73.13
36244;DHT22;22284;49.956;19.816;2022-07-23T03:11:29;20.25;73.20
36244;DHT22;22284;49.956;19.816;2022-07-23T03:14:30;20.27;73.18
36244;DHT22;22284;49.956;19.816;2022-07-23T03:17:31;20.24;72.96
36244;DHT22;22284;49.956;19.816;2022-07-23T03:20:32;20.28;73.08
36244;DHT22;22284;49.956;19.816;2022-07-23T03:23:33;20.30;73.39
36244;DHT22;22284;49.956;19.816;2022-07-23T03:26:34;20.24;73.10
36244;DHT22;22284;49.956;19.816;2022-07-23T03:29:35;20.24;73.17
36244;DHT22;22284;49.956;19.816;2022-07-23T03:32:37;20.23;73.19
36244;DHT22;22284;49.956;19.816;2022-07-23T03:35:39;20.25;73.10
36244;DHT22;22284;49.956;19.816;2022-07-23T03:38:40;20.24;73.06
36244;DHT22;22284;49.956;19.816;2022-07-23T03:41:41;20.27;73.17
36244;DHT22;22284;49.956;19.816;2022-07-23T03:44:42;20.27;73.16
36244;DHT22;22284;49.956;19.816;2022-07-23T03:47:43;20.30;73.01
36244;DHT22;22284;49.956;19.816;2022-07-23T03:50:44;20.28;72.98
36244;DHT22;22284;49.956;19.816;2022-07-23T03:53:45;20.34;73.02
36244;DHT22;22284;49.956;19.816;2022-07-23T03:56:47;20.35;72.98
36244;DHT22;22284;49.956;19.816;2022-07-23T03:59:48;20.38;73.05
36244;DHT22;22284;49.956;19.816;2022-07-23T04:02:49;20.41;73.12
36244;DHT22;22284;49.956;19.816;2022-07-23T04:05:50;20.39;73.28
36244;DHT22;22284;49.956;19.816;2022-07-23T04:08:51;20.37;73.17
36244;DHT22;22284;49.956;19.816;2022-07-23T04:11:52;20.42;73.92
36244;DHT22;22284;49.956;19.816;2022-07-23T04:14:53;20.44;73.68
36244;DHT22;22284;49.956;19.816;2022-07-23T04:17:54;20.44;73.58
36244;DHT22;22284;49.956;19.816;2022-07-23T04:20:55;20.47;73.55
36244;DHT22;22284;49.956;19.816;2022-07-23T04:23:56;20.49;73.48
36244;DHT22;22284;49.956;19.816;2022-07-23T04:26:57;20.58;73.75
36244;DHT22;22284;49.956;19.816;2022-07-23T04:29:58;20.66;73.75
36244;DHT22;22284;49.956;19.816;2022-07-23T04:32:59;20.75;73.91
36244;DHT22;22284;49.956;19.816;2022-07-23T04:36:00;20.79;73.86
36244;DHT22;22284;49.956;19.816;2022-07-23T04:39:01;20.87;73.66
36244;DHT22;22284;49.956;19.816;2022-07-23T04:42:03;20.97;73.73
36244;DHT22;22284;49.956;19.816;2022-07-23T04:45:05;21.04;74.38
36244;DHT22;22284;49.956;19.816;2022-07-23T04:48:06;21.17;73.90
36244;DHT22;22284;49.956;19.816;2022-07-23T04:51:07;21.24;73.53
36244;DHT22;22284;49.956;19.816;2022-07-23T04:54:08;21.34;73.85
36244;DHT22;22284;49.956;19.816;2022-07-23T04:57:09;21.48;73.67
36244;DHT22;22284;49.956;19.816;2022-07-23T05:00:11;21.65;73.15
36244;DHT22;22284;49.956;19.816;2022-07-23T05:03:12;21.77;73.21
36244;DHT22;22284;49.956;19.816;2022-07-23T05:06:14;21.92;72.59
36244;DHT22;22284;49.956;19.816;2022-07-23T05:09:16;21.99;72.18
36244;DHT22;22284;49.956;19.816;2022-07-23T05:12:16;22.08;71.89
36244;DHT22;22284;49.956;19.816;2022-07-23T05:15:18;22.20;71.72
36244;DHT22;22284;49.956;19.816;2022-07-23T05:18:19;22.28;71.67
36244;DHT22;22284;49.956;19.816;2022-07-23T05:21:20;22.35;71.58
36244;DHT22;22284;49.956;19.816;2022-07-23T05:24:21;22.46;71.36
36244;DHT22;22284;49.956;19.816;2022-07-23T05:27:22;22.51;71.18
36244;DHT22;22284;49.956;19.816;2022-07-23T05:30:23;22.59;71.01
36244;DHT22;22284;49.956;19.816;2022-07-23T05:33:23;22.68;70.94
36244;DHT22;22284;49.956;19.816;2022-07-23T05:36:24;22.72;70.87
36244;DHT22;22284;49.956;19.816;2022-07-23T05:39:25;22.80;70.79
36244;DHT22;22284;49.956;19.816;2022-07-23T05:42:26;22.87;70.73
36244;DHT22;22284;49.956;19.816;2022-07-23T05:45:27;22.91;70.80
36244;DHT22;22284;49.956;19.816;2022-07-23T05:48:28;22.93;70.73
36244;DHT22;22284;49.956;19.816;2022-07-23T05:51:29;22.96;70.79
36244;DHT22;22284;49.956;19.816;2022-07-23T05:54:30;23.03;70.84
36244;DHT22;22284;49.956;19.816;2022-07-23T05:57:31;23.10;70.88
36244;DHT22;22284;49.956;19.816;2022-07-23T06:00:32;23.17;71.00
36244;DHT22;22284;49.956;19.816;2022-07-23T06:03:33;23.25;70.96
36244;DHT22;22284;49.956;19.816;2022-07-23T06:06:34;23.35;70.99
36244;DHT22;22284;49.956;19.816;2022-07-23T06:09:35;23.45;71.04
36244;DHT22;22284;49.956;19.816;2022-07-23T06:12:36;23.53;71.03
36244;DHT22;22284;49.956;19.816;2022-07-23T06:15:37;23.63;70.77
36244;DHT22;22284;49.956;19.816;2022-07-23T06:18:38;23.69;70.50
36244;DHT22;22284;49.956;19.816;2022-07-23T06:21:40;23.79;70.16
36244;DHT22;22284;49.956;19.816;2022-07-23T06:24:41;23.87;69.96
36244;DHT22;22284;49.956;19.816;2022-07-23T06:27:42;23.99;69.79
36244;DHT22;22284;49.956;19.816;2022-07-23T06:30:43;24.08;69.46
36244;DHT22;22284;49.956;19.816;2022-07-23T06:33:44;24.17;69.04
36244;DHT22;22284;49.956;19.816;2022-07-23T06:36:45;24.22;68.80
36244;DHT22;22284;49.956;19.816;2022-07-23T06:39:46;24.32;68.92
36244;DHT22;22284;49.956;19.816;2022-07-23T06:42:47;24.42;68.83
36244;DHT22;22284;49.956;19.816;2022-07-23T06:45:48;24.48;68.50
36244;DHT22;22284;49.956;19.816;2022-07-23T06:48:49;24.58;68.28
36244;DHT22;22284;49.956;19.816;2022-07-23T06:51:50;24.67;67.97
36244;DHT22;22284;49.956;19.816;2022-07-23T06:54:52;24.77;67.86
36244;DHT22;22284;49.956;19.816;2022-07-23T06:57:53;24.84;67.86
36244;DHT22;22284;49.956;19.816;2022-07-23T07:00:55;24.94;67.80
36244;DHT22;22284;49.956;19.816;2022-07-23T07:03:57;25.00;67.60
36244;DHT22;22284;49.956;19.816;2022-07-23T07:06:58;25.01;67.61
36244;DHT22;22284;49.956;19.816;2022-07-23T07:09:59;24.90;67.52
36244;DHT22;22284;49.956;19.816;2022-07-23T07:13:00;24.83;67.30
36244;DHT22;22284;49.956;19.816;2022-07-23T07:16:01;24.82;67.19
36244;DHT22;22284;49.956;19.816;2022-07-23T07:19:02;24.83;67.18
36244;DHT22;22284;49.956;19.816;2022-07-23T07:22:03;24.87;67.17
36244;DHT22;22284;49.956;19.816;2022-07-23T07:25:06;24.90;67.01
36244;DHT22;22284;49.956;19.816;2022-07-23T07:28:07;25.01;67.09
36244;DHT22;22284;49.956;19.816;2022-07-23T07:31:08;25.27;66.94
36244;DHT22;22284;49.956;19.816;2022-07-23T07:34:09;25.44;66.63
36244;DHT22;22284;49.956;19.816;2022-07-23T07:37:10;25.63;66.54
36244;DHT22;22284;49.956;19.816;2022-07-23T07:40:11;25.84;66.27
36244;DHT22;22284;49.956;19.816;2022-07-23T07:43:12;26.00;65.75
36244;DHT22;22284;49.956;19.816;2022-07-23T07:46:13;26.20;65.17
36244;DHT22;22284;49.956;19.816;2022-07-23T07:49:14;26.38;64.34
36244;DHT22;22284;49.956;19.816;2022-07-23T07:52:15;26.49;64.32
36244;DHT22;22284;49.956;19.816;2022-07-23T07:55:15;26.52;64.16
36244;DHT22;22284;49.956;19.816;2022-07-23T07:58:16;26.52;64.34
36244;DHT22;22284;49.956;19.816;2022-07-23T08:01:17;26.52;64.22
36244;DHT22;22284;49.956;19.816;2022-07-23T08:04:20;26.52;64.07
36244;DHT22;22284;49.956;19.816;2022-07-23T08:07:21;26.56;63.90
36244;DHT22;22284;49.956;19.816;2022-07-23T08:10:22;26.59;63.87
36244;DHT22;22284;49.956;19.816;2022-07-23T08:13:23;26.67;64.11
36244;DHT22;22284;49.956;19.816;2022-07-23T08:16:24;26.76;64.13
36244;DHT22;22284;49.956;19.816;2022-07-23T08:19:25;26.93;63.81
36244;DHT22;22284;49.956;19.816;2022-07-23T08:25:51;27.05;63.56
36244;DHT22;22284;49.956;19.816;2022-07-23T08:28:52;27.13;63.10
36244;DHT22;22284;49.956;19.816;2022-07-23T08:31:53;27.20;63.17
36244;DHT22;22284;49.956;19.816;2022-07-23T08:34:54;27.29;63.13
36244;DHT22;22284;49.956;19.816;2022-07-23T08:37:56;27.38;62.60
36244;DHT22;22284;49.956;19.816;2022-07-23T08:40:58;27.45;62.24
36244;DHT22;22284;49.956;19.816;2022-07-23T08:43:59;27.59;62.06
36244;DHT22;22284;49.956;19.816;2022-07-23T08:47:02;27.70;61.90
36244;DHT22;22284;49.956;19.816;2022-07-23T08:50:04;27.80;61.64
36244;DHT22;22284;49.956;19.816;2022-07-23T08:53:06;27.95;60.94
36244;DHT22;22284;49.956;19.816;2022-07-23T08:56:08;28.11;60.65
36244;DHT22;22284;49.956;19.816;2022-07-23T08:59:09;28.24;59.80
36244;DHT22;22284;49.956;19.816;2022-07-23T09:02:12;28.36;59.52
36244;DHT22;22284;49.956;19.816;2022-07-23T09:05:14;28.52;59.47
36244;DHT22;22284;49.956;19.816;2022-07-23T09:08:18;28.65;58.16
36244;DHT22;22284;49.956;19.816;2022-07-23T09:11:20;28.77;58.25
36244;DHT22;22284;49.956;19.816;2022-07-23T09:14:43;28.86;57.92
36244;DHT22;22284;49.956;19.816;2022-07-23T09:17:45;28.93;57.60
36244;DHT22;22284;49.956;19.816;2022-07-23T09:20:46;29.05;57.24
36244;DHT22;22284;49.956;19.816;2022-07-23T09:23:59;29.12;56.12
36244;DHT22;22284;49.956;19.816;2022-07-23T09:27:03;29.17;54.56
36244;DHT22;22284;49.956;19.816;2022-07-23T09:30:06;29.19;53.10
36244;DHT22;22284;49.956;19.816;2022-07-23T09:33:13;29.24;53.10
36244;DHT22;22284;49.956;19.816;2022-07-23T09:36:29;29.31;53.15
36244;DHT22;22284;49.956;19.816;2022-07-23T09:39:32;29.34;52.92
36244;DHT22;22284;49.956;19.816;2022-07-23T09:42:33;29.41;51.96
36244;DHT22;22284;49.956;19.816;2022-07-23T09:45:35;29.44;51.50
36244;DHT22;22284;49.956;19.816;2022-07-23T09:48:36;29.46;51.46
36244;DHT22;22284;49.956;19.816;2022-07-23T09:51:48;29.49;51.71
36244;DHT22;22284;49.956;19.816;2022-07-23T09:54:52;29.55;52.41
36244;DHT22;22284;49.956;19.816;2022-07-23T09:57:54;29.60;51.85
36244;DHT22;22284;49.956;19.816;2022-07-23T10:00:57;29.69;51.44
36244;DHT22;22284;49.956;19.816;2022-07-23T10:03:59;29.76;51.55
36244;DHT22;22284;49.956;19.816;2022-07-23T10:07:04;29.80;51.77
36244;DHT22;22284;49.956;19.816;2022-07-23T10:10:07;29.84;51.57
36244;DHT22;22284;49.956;19.816;2022-07-23T10:13:09;29.90;50.77
36244;DHT22;22284;49.956;19.816;2022-07-23T10:16:29;29.96;49.87
36244;DHT22;22284;49.956;19.816;2022-07-23T10:19:31;30.05;49.68
36244;DHT22;22284;49.956;19.816;2022-07-23T10:26:36;30.18;49.32
36244;DHT22;22284;49.956;19.816;2022-07-23T10:29:59;30.26;48.20
36244;DHT22;22284;49.956;19.816;2022-07-23T10:40:17;30.48;48.08
36244;DHT22;22284;49.956;19.816;2022-07-23T10:43:19;30.55;47.57
36244;DHT22;22284;49.956;19.816;2022-07-23T10:46:25;30.55;47.34
36244;DHT22;22284;49.956;19.816;2022-07-23T10:49:31;30.56;47.27
36244;DHT22;22284;49.956;19.816;2022-07-23T10:52:33;30.58;47.30
36244;DHT22;22284;49.956;19.816;2022-07-23T10:58:49;30.55;46.02
36244;DHT22;22284;49.956;19.816;2022-07-23T11:01:50;30.59;45.80
36244;DHT22;22284;49.956;19.816;2022-07-23T11:04:53;30.63;45.77
36244;DHT22;22284;49.956;19.816;2022-07-23T11:08:11;30.66;45.50
36244;DHT22;22284;49.956;19.816;2022-07-23T11:11:12;30.76;45.41
36244;DHT22;22284;49.956;19.816;2022-07-23T11:14:13;30.80;45.42
36244;DHT22;22284;49.956;19.816;2022-07-23T11:17:19;30.86;45.54
36244;DHT22;22284;49.956;19.816;2022-07-23T11:20:23;30.87;45.11
36244;DHT22;22284;49.956;19.816;2022-07-23T11:23:57;30.93;44.72
36244;DHT22;22284;49.956;19.816;2022-07-23T11:29:45;31.03;45.11
36244;DHT22;22284;49.956;19.816;2022-07-23T11:32:46;31.04;44.80
36244;DHT22;22284;49.956;19.816;2022-07-23T11:36:00;31.10;45.15
36244;DHT22;22284;49.956;19.816;2022-07-23T11:38:54;31.14;44.67
36244;DHT22;22284;49.956;19.816;2022-07-23T11:41:57;31.24;44.43
36244;DHT22;22284;49.956;19.816;2022-07-23T11:44:59;31.29;43.95
36244;DHT22;22284;49.956;19.816;2022-07-23T11:48:00;31.36;44.42
36244;DHT22;22284;49.956;19.816;2022-07-23T11:51:02;31.45;44.41
36244;DHT22;22284;49.956;19.816;2022-07-23T11:54:06;31.50;43.90
36244;DHT22;22284;49.956;19.816;2022-07-23T11:57:07;31.54;44.04
36244;DHT22;22284;49.956;19.816;2022-07-23T12:00:22;31.59;43.65
36244;DHT22;22284;49.956;19.816;2022-07-23T12:03:23;31.60;43.46
36244;DHT22;22284;49.956;19.816;2022-07-23T12:06:24;31.62;43.38
36244;DHT22;22284;49.956;19.816;2022-07-23T12:09:25;31.62;42.92
36244;DHT22;22284;49.956;19.816;2022-07-23T12:12:26;31.54;42.61
36244;DHT22;22284;49.956;19.816;2022-07-23T12:15:32;31.60;42.67
36244;DHT22;22284;49.956;19.816;2022-07-23T12:18:34;31.62;42.28
36244;DHT22;22284;49.956;19.816;2022-07-23T12:21:35;31.63;42.08
36244;DHT22;22284;49.956;19.816;2022-07-23T12:24:59;31.59;42.11
36244;DHT22;22284;49.956;19.816;2022-07-23T12:31:14;31.60;42.13
36244;DHT22;22284;49.956;19.816;2022-07-23T12:34:15;31.60;42.31
36244;DHT22;22284;49.956;19.816;2022-07-23T12:37:31;31.62;42.52
36244;DHT22;22284;49.956;19.816;2022-07-23T12:43:51;31.66;42.35
36244;DHT22;22284;49.956;19.816;2022-07-23T12:46:52;31.66;42.66
36244;DHT22;22284;49.956;19.816;2022-07-23T12:49:53;31.70;42.83
36244;DHT22;22284;49.956;19.816;2022-07-23T12:53:09;31.67;42.47
36244;DHT22;22284;49.956;19.816;2022-07-23T12:59:30;31.62;42.66
36244;DHT22;22284;49.956;19.816;2022-07-23T13:02:45;31.59;42.87
36244;DHT22;22284;49.956;19.816;2022-07-23T13:05:47;31.53;43.29
36244;DHT22;22284;49.956;19.816;2022-07-23T13:08:48;31.52;43.69
36244;DHT22;22284;49.956;19.816;2022-07-23T13:11:51;31.53;43.52
36244;DHT22;22284;49.956;19.816;2022-07-23T13:14:52;31.58;43.48
36244;DHT22;22284;49.956;19.816;2022-07-23T13:17:52;31.63;43.41
36244;DHT22;22284;49.956;19.816;2022-07-23T13:20:54;31.66;42.75
36244;DHT22;22284;49.956;19.816;2022-07-23T13:23:56;31.66;43.22
36244;DHT22;22284;49.956;19.816;2022-07-23T13:26:57;31.76;43.38
36244;DHT22;22284;49.956;19.816;2022-07-23T13:30:00;31.83;43.31
36244;DHT22;22284;49.956;19.816;2022-07-23T13:33:03;31.86;43.53
36244;DHT22;22284;49.956;19.816;2022-07-23T13:36:05;31.88;42.99
36244;DHT22;22284;49.956;19.816;2022-07-23T13:39:06;31.83;43.78
36244;DHT22;22284;49.956;19.816;2022-07-23T13:42:08;31.79;44.04
36244;DHT22;22284;49.956;19.816;2022-07-23T13:45:09;31.72;43.72
36244;DHT22;22284;49.956;19.816;2022-07-23T13:48:12;31.69;44.15
36244;DHT22;22284;49.956;19.816;2022-07-23T13:51:13;31.69;44.50
36244;DHT22;22284;49.956;19.816;2022-07-23T13:54:16;31.70;44.88
36244;DHT22;22284;49.956;19.816;2022-07-23T13:57:17;31.69;44.76
36244;DHT22;22284;49.956;19.816;2022-07-23T14:00:18;31.70;44.86
36244;DHT22;22284;49.956;19.816;2022-07-23T14:03:22;31.70;45.64
36244;DHT22;22284;49.956;19.816;2022-07-23T14:06:23;31.60;45.54
36244;DHT22;22284;49.956;19.816;2022-07-23T14:09:25;31.52;44.74
36244;DHT22;22284;49.956;19.816;2022-07-23T14:12:26;31.46;44.71
36244;DHT22;22284;49.956;19.816;2022-07-23T14:15:30;31.39;45.29
36244;DHT22;22284;49.956;19.816;2022-07-23T14:18:31;31.29;46.22
36244;DHT22;22284;49.956;19.816;2022-07-23T14:21:32;31.22;47.60
36244;DHT22;22284;49.956;19.816;2022-07-23T14:24:33;31.07;48.33
36244;DHT22;22284;49.956;19.816;2022-07-23T14:27:34;30.97;48.90
36244;DHT22;22284;49.956;19.816;2022-07-23T14:30:35;30.81;50.03
36244;DHT22;22284;49.956;19.816;2022-07-23T14:33:36;30.66;49.37
36244;DHT22;22284;49.956;19.816;2022-07-23T14:36:38;30.52;48.55
36244;DHT22;22284;49.956;19.816;2022-07-23T14:39:39;30.43;48.56
36244;DHT22;22284;49.956;19.816;2022-07-23T14:42:40;30.32;48.75
36244;DHT22;22284;49.956;19.816;2022-07-23T14:45:41;30.24;47.83
36244;DHT22;22284;49.956;19.816;2022-07-23T14:48:42;30.15;47.38
36244;DHT22;22284;49.956;19.816;2022-07-23T14:51:43;30.09;48.45
36244;DHT22;22284;49.956;19.816;2022-07-23T14:54:45;29.98;50.54
36244;DHT22;22284;49.956;19.816;2022-07-23T14:57:46;29.66;48.25
36244;DHT22;22284;49.956;19.816;2022-07-23T15:00:47;29.08;48.98
36244;DHT22;22284;49.956;19.816;2022-07-23T15:03:49;28.49;47.93
36244;DHT22;22284;49.956;19.816;2022-07-23T15:06:51;27.93;49.97
36244;DHT22;22284;49.956;19.816;2022-07-23T15:09:52;27.41;52.55
36244;DHT22;22284;49.956;19.816;2022-07-23T15:12:53;26.93;54.02
36244;DHT22;22284;49.956;19.816;2022-07-23T15:15:53;26.49;55.89
36244;DHT22;22284;49.956;19.816;2022-07-23T15:18:55;26.03;56.68
36244;DHT22;22284;49.956;19.816;2022-07-23T15:21:56;25.53;58.06
36244;DHT22;22284;49.956;19.816;2022-07-23T15:24:57;25.11;58.61
36244;DHT22;22284;49.956;19.816;2022-07-23T15:27:58;24.87;58.63
36244;DHT22;22284;49.956;19.816;2022-07-23T15:31:00;24.75;59.52
36244;DHT22;22284;49.956;19.816;2022-07-23T15:34:01;24.67;58.95
36244;DHT22;22284;49.956;19.816;2022-07-23T15:37:02;24.62;59.62
36244;DHT22;22284;49.956;19.816;2022-07-23T15:40:07;24.58;60.41
36244;DHT22;22284;49.956;19.816;2022-07-23T15:43:08;24.60;61.19
36244;DHT22;22284;49.956;19.816;2022-07-23T15:46:09;24.76;61.08
36244;DHT22;22284;49.956;19.816;2022-07-23T15:49:10;24.90;60.97
36244;DHT22;22284;49.956;19.816;2022-07-23T15:52:13;25.01;61.05
36244;DHT22;22284;49.956;19.816;2022-07-23T15:55:14;25.11;60.88
36244;DHT22;22284;49.956;19.816;2022-07-23T15:58:15;25.21;60.87
36244;DHT22;22284;49.956;19.816;2022-07-23T16:01:16;25.27;61.23
36244;DHT22;22284;49.956;19.816;2022-07-23T16:04:18;25.29;61.23
36244;DHT22;22284;49.956;19.816;2022-07-23T16:07:20;25.35;61.30
36244;DHT22;22284;49.956;19.816;2022-07-23T16:10:21;25.39;63.03
36244;DHT22;22284;49.956;19.816;2022-07-23T16:13:23;25.39;65.15
36244;DHT22;22284;49.956;19.816;2022-07-23T16:16:24;25.29;64.23
36244;DHT22;22284;49.956;19.816;2022-07-23T16:19:26;25.21;65.72
36244;DHT22;22284;49.956;19.816;2022-07-23T16:22:27;25.11;65.66
36244;DHT22;22284;49.956;19.816;2022-07-23T16:25:28;25.07;66.59
36244;DHT22;22284;49.956;19.816;2022-07-23T16:28:29;25.14;68.17
36244;DHT22;22284;49.956;19.816;2022-07-23T16:31:31;25.11;68.43
36244;DHT22;22284;49.956;19.816;2022-07-23T16:34:32;25.14;68.38
36244;DHT22;22284;49.956;19.816;2022-07-23T16:37:33;25.14;69.80
36244;DHT22;22284;49.956;19.816;2022-07-23T16:40:35;25.22;69.33
36244;DHT22;22284;49.956;19.816;2022-07-23T16:43:37;25.28;69.09
36244;DHT22;22284;49.956;19.816;2022-07-23T16:46:39;25.38;69.08
36244;DHT22;22284;49.956;19.816;2022-07-23T16:49:40;25.48;68.75
36244;DHT22;22284;49.956;19.816;2022-07-23T16:52:41;25.62;68.24
36244;DHT22;22284;49.956;19.816;2022-07-23T16:55:42;25.73;67.79
36244;DHT22;22284;49.956;19.816;2022-07-23T16:58:44;25.77;67.23
36244;DHT22;22284;49.956;19.816;2022-07-23T17:01:45;25.84;67.10
36244;DHT22;22284;49.956;19.816;2022-07-23T17:04:46;25.89;66.85
36244;DHT22;22284;49.956;19.816;2022-07-23T17:07:49;25.94;66.84
36244;DHT22;22284;49.956;19.816;2022-07-23T17:10:50;25.98;66.84
36244;DHT22;22284;49.956;19.816;2022-07-23T17:13:52;26.03;67.67
36244;DHT22;22284;49.956;19.816;2022-07-23T17:16:53;26.01;66.37
36244;DHT22;22284;49.956;19.816;2022-07-23T17:19:54;26.05;66.38
36244;DHT22;22284;49.956;19.816;2022-07-23T17:22:55;25.97;65.79
36244;DHT22;22284;49.956;19.816;2022-07-23T17:25:57;25.96;65.87
36244;DHT22;22284;49.956;19.816;2022-07-23T17:28:58;25.87;65.78
36244;DHT22;22284;49.956;19.816;2022-07-23T17:32:00;25.79;65.88
36244;DHT22;22284;49.956;19.816;2022-07-23T17:35:01;25.79;65.83
36244;DHT22;22284;49.956;19.816;2022-07-23T17:38:03;25.77;65.49
36244;DHT22;22284;49.956;19.816;2022-07-23T17:41:05;25.75;65.18
36244;DHT22;22284;49.956;19.816;2022-07-23T17:44:06;25.73;64.99
36244;DHT22;22284;49.956;19.816;2022-07-23T17:47:07;25.63;64.79
36244;DHT22;22284;49.956;19.816;2022-07-23T17:50:09;25.53;64.79
36244;DHT22;22284;49.956;19.816;2022-07-23T17:53:11;25.48;64.94
36244;DHT22;22284;49.956;19.816;2022-07-23T17:56:11;25.27;65.61
36244;DHT22;22284;49.956;19.816;2022-07-23T17:59:13;25.00;66.46
36244;DHT22;22284;49.956;19.816;2022-07-23T18:02:14;24.77;67.41
36244;DHT22;22284;49.956;19.816;2022-07-23T18:05:15;24.56;68.06
36244;DHT22;22284;49.956;19.816;2022-07-23T18:08:16;24.44;68.69
36244;DHT22;22284;49.956;19.816;2022-07-23T18:11:18;24.25;69.30
36244;DHT22;22284;49.956;19.816;2022-07-23T18:14:20;24.11;69.91
36244;DHT22;22284;49.956;19.816;2022-07-23T18:17:21;24.00;70.77
36244;DHT22;22284;49.956;19.816;2022-07-23T18:20:22;23.87;71.34
36244;DHT22;22284;49.956;19.816;2022-07-23T18:23:23;23.80;72.11
36244;DHT22;22284;49.956;19.816;2022-07-23T18:26:24;23.73;72.72
36244;DHT22;22284;49.956;19.816;2022-07-23T18:29:25;23.66;74.21
36244;DHT22;22284;49.956;19.816;2022-07-23T18:32:27;23.56;75.54
36244;DHT22;22284;49.956;19.816;2022-07-23T18:35:28;23.42;76.81
36244;DHT22;22284;49.956;19.816;2022-07-23T18:38:29;23.31;77.14
36244;DHT22;22284;49.956;19.816;2022-07-23T18:41:32;23.25;77.16
36244;DHT22;22284;49.956;19.816;2022-07-23T18:44:33;23.14;77.31
36244;DHT22;22284;49.956;19.816;2022-07-23T18:47:35;23.10;78.05
36244;DHT22;22284;49.956;19.816;2022-07-23T18:50:37;22.97;78.95
36244;DHT22;22284;49.956;19.816;2022-07-23T18:53:38;22.89;79.05
36244;DHT22;22284;49.956;19.816;2022-07-23T18:56:39;22.80;79.42
36244;DHT22;22284;49.956;19.816;2022-07-23T18:59:41;22.79;79.56
36244;DHT22;22284;49.956;19.816;2022-07-23T19:02:42;22.76;79.83
36244;DHT22;22284;49.956;19.816;2022-07-23T19:05:44;22.73;80.19
36244;DHT22;22284;49.956;19.816;2022-07-23T19:08:45;22.73;80.55
36244;DHT22;22284;49.956;19.816;2022-07-23T19:11:46;22.69;80.64
36244;DHT22;22284;49.956;19.816;2022-07-23T19:14:47;22.69;80.94
36244;DHT22;22284;49.956;19.816;2022-07-23T19:17:48;22.66;81.11
36244;DHT22;22284;49.956;19.816;2022-07-23T19:20:48;22.63;81.17